Triumph — WDC9555 — position and weather

sailwx.info

Track history (hours):
 
Tides and Currents Weather Stations Pressure Air Temp Water Temp Dewpoint Dewpoint Depression Visibility Wind Speed Wind Dir Waves Ship Positions

Triumph

Owner: WESTERN TOWBOAT CO, SEATTLE, WA. More information available from US FCC via Universal Licensing System and Coast Guard Vessel Documentation Center.

Last reported at 2018-Apr-27 08:19 UTC. Time now 2018-Apr-27 08:53 UTC.
Position N 49°05' W 123°19'.

Length 24 m; draft 4 m.

Type: Tow > 200 m length. MMSI: 367103880.

Date/timePositionNaut miles runAvg speedWind from/ knotsBaromVisibWave heightAir tempDewpointWater temp
2018-Apr-27 08:19N 49°05' W 123°19'2 5.6
2018-Apr-27 07:59N 49°06' W 123°18'3 6.3
2018-Apr-27 07:30N 49°08' W 123°13'4 7.1
2018-Apr-27 07:00N 49°07' W 123°09'4 7.2
2018-Apr-27 06:31N 49°08' W 123°04'1 2.8
2018-Apr-27 06:00N 49°09' W 123°02'0 0.1
2018-Apr-27 05:30N 49°09' W 123°02'0 0.0
2018-Apr-27 05:00N 49°09' W 123°02'0 0.0
2018-Apr-27 04:29N 49°09' W 123°02'0 0.0
2018-Apr-27 04:00N 49°09' W 123°02'0 0.0
2018-Apr-27 03:29N 49°09' W 123°02'0 0.0
2018-Apr-27 03:00N 49°09' W 123°02'0 0.0
2018-Apr-27 02:29N 49°09' W 123°02'0 0.0
2018-Apr-27 02:00N 49°09' W 123°02'0 0.0
2018-Apr-27 01:30N 49°09' W 123°02'0 0.0
2018-Apr-27 00:59N 49°09' W 123°02'0 0.0
2018-Apr-27 00:31N 49°09' W 123°02'0 0.0
2018-Apr-27 00:01N 49°09' W 123°02'0 0.0
2018-Apr-26 23:30N 49°09' W 123°02'0 0.0
2018-Apr-26 23:01N 49°09' W 123°02'1 2.2
2018-Apr-26 22:30N 49°09' W 123°00'0 0.0
2018-Apr-26 22:01N 49°09' W 123°00'1 2.2
2018-Apr-26 21:30N 49°09' W 123°02'0 0.1
2018-Apr-26 21:00N 49°09' W 123°02'0 0.0
2018-Apr-26 20:31N 49°09' W 123°02'0 0.0
2018-Apr-26 20:01N 49°09' W 123°02'0 0.0
2018-Apr-26 19:30N 49°09' W 123°02'0 0.0
2018-Apr-26 19:00N 49°09' W 123°02'0 0.0
2018-Apr-26 18:30N 49°09' W 123°02'0 0.0
2018-Apr-26 18:00N 49°09' W 123°02'0 0.0
2018-Apr-26 17:30N 49°09' W 123°02'0 0.0
2018-Apr-26 17:00N 49°09' W 123°02'0 0.0
2018-Apr-26 16:30N 49°09' W 123°02'0 0.0
2018-Apr-26 16:01N 49°09' W 123°02'0 0.0
2018-Apr-26 15:30N 49°09' W 123°02'0 0.0
2018-Apr-26 15:01N 49°09' W 123°02'0 0.0
2018-Apr-26 14:31N 49°09' W 123°02'0 0.0
2018-Apr-26 14:00N 49°09' W 123°02'0 0.0
2018-Apr-26 13:29N 49°09' W 123°02'0 0.0
2018-Apr-26 13:01N 49°09' W 123°02'0 0.1
2018-Apr-26 12:30N 49°09' W 123°02'1 1.8
2018-Apr-26 12:00N 49°08' W 123°03'4 7.6
2018-Apr-26 11:31N 49°06' W 123°08'4 7.7
2018-Apr-26 10:57N 49°08' W 123°14'3 6.1
2018-Apr-26 10:22N 49°06' W 123°19'2 4.4
2018-Apr-26 10:00N 49°04' W 123°19'3 6.4
2018-Apr-26 09:28N 49°02' W 123°16'5 6.6
2018-Apr-26 08:45N 48°59' W 123°11'2 6.4
2018-Apr-26 08:30N 48°57' W 123°09'3 6.3
2018-Apr-26 08:00N 48°56' W 123°05'16 6.6
2018-Apr-26 05:39N 48°46' W 122°47'2 6.5
2018-Apr-26 05:21N 48°44' W 122°45'2 6.8
2018-Apr-26 05:01N 48°42' W 122°43'3 6.5
2018-Apr-26 04:30N 48°39' W 122°43'4 6.9
2018-Apr-26 03:59N 48°35' W 122°45'3 7.2
2018-Apr-26 03:31N 48°32' W 122°45'3 7.0
2018-Apr-26 03:00N 48°28' W 122°44'4 7.0
2018-Apr-26 02:29N 48°25' W 122°44'29 8.0
2018-Apr-25 22:53N 47°57' W 122°32'3 8.1
2018-Apr-25 22:31N 47°55' W 122°29'4 8.3
2018-Apr-25 22:01N 47°51' W 122°27'4 7.5
2018-Apr-25 21:31N 47°47' W 122°26'4 7.2
2018-Apr-25 21:01N 47°44' W 122°26'3 6.8
2018-Apr-25 20:31N 47°40' W 122°27'3 6.7
2018-Apr-25 20:01N 47°37' W 122°24'3 5.4
2018-Apr-25 19:30N 47°35' W 122°22'1 2.6
2018-Apr-25 19:00N 47°34' W 122°21'0 0.0
2018-Apr-23 23:11N 47°34' W 122°21'1 3.5
2018-Apr-23 23:01N 47°35' W 122°22'611.0
2018-Apr-23 22:29N 47°39' W 122°26'511.5
2018-Apr-23 22:00N 47°45' W 122°28'611.1
2018-Apr-23 21:30N 47°50' W 122°29'510.3
2018-Apr-23 21:00N 47°55' W 122°31'5 9.6
2018-Apr-23 20:29N 47°59' W 122°37'2010.1
2018-Apr-23 18:31N 48°17' W 122°48'111.7
2018-Apr-23 18:25N 48°18' W 122°47'511.4
2018-Apr-23 18:00N 48°23' W 122°45'611.4
2018-Apr-23 17:30N 48°28' W 122°45'611.5
2018-Apr-23 17:00N 48°34' W 122°45'611.3
2018-Apr-23 16:30N 48°40' W 122°44'611.5
2018-Apr-23 15:58N 48°45' W 122°49'511.8
2018-Apr-23 15:30N 48°48' W 122°55'1211.7
2018-Apr-23 14:28N 48°56' W 123°10'611.7
2018-Apr-23 13:58N 48°59' W 123°17'510.6
2018-Apr-23 13:28N 49°04' W 123°20'511.3
2018-Apr-23 12:59N 49°08' W 123°13'612.1
2018-Apr-23 12:30N 49°08' W 123°04'611.2
2018-Apr-23 12:01N 49°10' W 122°56'4 7.4
2018-Apr-23 11:31N 49°13' W 122°53'1 2.0
2018-Apr-23 11:00N 49°12' W 122°54'1 2.4
2018-Apr-23 10:31N 49°11' W 122°55'2 3.1
2018-Apr-23 10:00N 49°10' W 122°56'2 4.0
2018-Apr-23 09:29N 49°09' W 122°60'3 5.6
2018-Apr-23 08:59N 49°08' W 123°03'3 6.9
2018-Apr-23 08:31N 49°06' W 123°08'4 7.9
2018-Apr-23 07:58N 49°08' W 123°14'3 7.3
2018-Apr-23 07:30N 49°06' W 123°18'2 4.7
2018-Apr-23 06:59N 49°04' W 123°19'3 5.4
2018-Apr-23 06:26N 49°02' W 123°15'3 5.5
2018-Apr-23 05:52N 48°59' W 123°12'2 5.5
2018-Apr-23 05:29N 48°58' W 123°10'6 5.9
2018-Apr-23 04:31N 48°54' W 123°03'15 7.4
2018-Apr-23 02:25N 48°44' W 122°45'4 9.0
2018-Apr-23 02:01N 48°41' W 122°43'4 8.0
2018-Apr-23 01:30N 48°37' W 122°45'4 8.2
2018-Apr-23 01:00N 48°33' W 122°45'3 6.9
2018-Apr-23 00:30N 48°30' W 122°44'4 6.9
2018-Apr-23 00:00N 48°26' W 122°44'30 8.0
2018-Apr-22 20:19N 47°57' W 122°33'3 9.6
2018-Apr-22 20:01N 47°56' W 122°29'4 8.9
2018-Apr-22 19:30N 47°52' W 122°28'4 8.2
2018-Apr-22 19:00N 47°48' W 122°26'4 7.7
2018-Apr-22 18:31N 47°44' W 122°26'4 7.6
2018-Apr-22 18:00N 47°40' W 122°27'4 7.5
2018-Apr-22 17:31N 47°37' W 122°24'3 6.1
2018-Apr-22 17:00N 47°34' W 122°21'0 0.7
2018-Apr-22 16:30N 47°34' W 122°21'0 0.0
2018-Apr-22 16:00N 47°34' W 122°21'0 0.0
2018-Apr-22 02:07N 47°34' W 122°21'0 3.0
2018-Apr-22 02:00N 47°34' W 122°21'2 3.7
2018-Apr-22 01:30N 47°36' W 122°23'3 6.0
2018-Apr-22 01:00N 47°38' W 122°26'3 6.6
2018-Apr-22 00:30N 47°41' W 122°28'4 7.4
2018-Apr-22 00:00N 47°45' W 122°27'4 7.1
2018-Apr-21 23:30N 47°48' W 122°28'4 7.3
2018-Apr-21 23:00N 47°52' W 122°29'4 7.1
2018-Apr-21 22:30N 47°55' W 122°30'3 6.0
2018-Apr-21 21:56N 47°57' W 122°34'2 5.3
2018-Apr-21 21:28N 47°59' W 122°37'20 4.3
2018-Apr-21 16:41N 48°18' W 122°47'1 6.1
2018-Apr-21 16:28N 48°19' W 122°47'3 6.0
2018-Apr-21 16:00N 48°22' W 122°45'3 5.5
2018-Apr-21 15:29N 48°25' W 122°45'3 6.1
2018-Apr-21 15:00N 48°28' W 122°45'3 6.9
2018-Apr-21 14:30N 48°31' W 122°45'4 6.9
2018-Apr-21 13:58N 48°35' W 122°45'3 6.6
2018-Apr-21 13:30N 48°38' W 122°44'3 6.6
2018-Apr-21 13:00N 48°41' W 122°44'4 7.6
2018-Apr-21 12:30N 48°45' W 122°47'5 7.4
2018-Apr-21 11:52N 48°47' W 122°53'8 7.4
2018-Apr-21 10:46N 48°52' W 123°03'2 7.4
2018-Apr-21 10:30N 48°53' W 123°06'4 7.6
2018-Apr-21 09:58N 48°56' W 123°10'5 7.2
2018-Apr-21 09:18N 48°59' W 123°16'2 7.0
2018-Apr-21 08:59N 49°00' W 123°18'4 6.7
2018-Apr-21 08:28N 49°04' W 123°20'3 6.3
2018-Apr-21 08:00N 49°06' W 123°18'3 6.0
2018-Apr-21 07:30N 49°08' W 123°13'3 5.5
2018-Apr-21 06:59N 49°07' W 123°10'2 5.0
2018-Apr-21 06:30N 49°07' W 123°06'2 4.9
2018-Apr-21 06:00N 49°08' W 123°03'1 1.7
2018-Apr-21 05:29N 49°09' W 123°02'0 0.1
2018-Apr-21 04:58N 49°09' W 123°02'0 0.0
2018-Apr-21 04:30N 49°09' W 123°02'0 0.0
2018-Apr-21 04:00N 49°09' W 123°02'0 0.0
2018-Apr-21 03:30N 49°09' W 123°02'0 0.0
2018-Apr-21 03:00N 49°09' W 123°02'0 0.0
2018-Apr-21 02:30N 49°09' W 123°02'0 0.0
2018-Apr-21 02:00N 49°09' W 123°02'0 0.0
2018-Apr-21 01:28N 49°09' W 123°02'0 0.0
2018-Apr-21 00:57N 49°09' W 123°02'0 0.0
2018-Apr-21 00:30N 49°09' W 123°02'0 0.0
2018-Apr-21 00:00N 49°09' W 123°02'0 0.0
2018-Apr-20 23:30N 49°09' W 123°02'0 0.0
2018-Apr-20 23:00N 49°09' W 123°02'0 0.0
2018-Apr-20 22:30N 49°09' W 123°02'0 0.0
2018-Apr-20 22:00N 49°09' W 123°02'0 0.0
2018-Apr-20 21:30N 49°09' W 123°02'0 0.0
2018-Apr-20 21:00N 49°09' W 123°02'0 0.0
2018-Apr-20 20:30N 49°09' W 123°02'0 0.0
2018-Apr-20 20:00N 49°09' W 123°02'0 0.0
2018-Apr-20 19:30N 49°09' W 123°02'0 0.0
2018-Apr-20 19:00N 49°09' W 123°02'0 0.0
2018-Apr-20 18:30N 49°09' W 123°02'0 0.0
2018-Apr-20 18:00N 49°09' W 123°02'0 0.0
2018-Apr-20 17:30N 49°09' W 123°02'0 0.0
2018-Apr-20 17:00N 49°09' W 123°02'0 0.0
2018-Apr-20 16:30N 49°09' W 123°02'0 0.0
2018-Apr-20 16:00N 49°09' W 123°02'0 0.0
2018-Apr-20 15:30N 49°09' W 123°02'0 0.0
2018-Apr-20 15:00N 49°09' W 123°02'0 0.0
2018-Apr-20 14:30N 49°09' W 123°02'0 0.0
2018-Apr-20 13:59N 49°09' W 123°02'0 0.0
2018-Apr-20 13:30N 49°09' W 123°02'0 0.0
2018-Apr-20 13:00N 49°09' W 123°02'0 0.0
2018-Apr-20 12:28N 49°09' W 123°02'0 0.0
2018-Apr-20 12:00N 49°09' W 123°02'0 0.0
2018-Apr-20 11:30N 49°09' W 123°02'0 0.0
2018-Apr-20 11:00N 49°09' W 123°02'0 0.0
2018-Apr-20 10:30N 49°09' W 123°02'0 0.2
2018-Apr-20 10:00N 49°09' W 123°02'3 5.4
2018-Apr-20 09:30N 49°07' W 123°05'3 6.1
2018-Apr-20 08:56N 49°07' W 123°11'3 6.6
2018-Apr-20 08:28N 49°08' W 123°15'4 7.3
2018-Apr-20 07:57N 49°05' W 123°20'3 6.6
2018-Apr-20 07:27N 49°02' W 123°17'5 9.0
2018-Apr-20 06:56N 48°59' W 123°12'4 8.7
2018-Apr-20 06:30N 48°57' W 123°08'18 9.7
2018-Apr-20 04:40N 48°46' W 122°46'211.0
2018-Apr-20 04:30N 48°44' W 122°45'510.5
2018-Apr-20 04:00N 48°39' W 122°43'510.9
2018-Apr-20 03:30N 48°34' W 122°45'611.8
2018-Apr-20 03:00N 48°28' W 122°44'31 6.8
2018-Apr-19 22:32N 47°58' W 122°34'1 6.9
2018-Apr-19 22:23N 47°57' W 122°32'3 8.3
2018-Apr-19 22:00N 47°55' W 122°29'4 8.9
2018-Apr-19 21:30N 47°51' W 122°27'5 9.1
2018-Apr-19 21:00N 47°46' W 122°26'4 8.9
2018-Apr-19 20:30N 47°42' W 122°27'4 8.7
2018-Apr-19 20:00N 47°38' W 122°26'4 8.5
2018-Apr-19 19:30N 47°35' W 122°22'1 2.3
2018-Apr-19 19:00N 47°34' W 122°21'1 0.0
2018-Apr-18 02:04N 47°34' W 122°21'0 0.1
2018-Apr-18 02:00N 47°34' W 122°21'0 0.5
2018-Apr-18 01:30N 47°34' W 122°21'3 5.3
2018-Apr-18 01:01N 47°36' W 122°23'4 7.1
2018-Apr-18 00:30N 47°33' W 122°25'4 8.7
2018-Apr-18 00:00N 47°28' W 122°24'4 8.7
2018-Apr-17 23:30N 47°24' W 122°22'4 7.7
2018-Apr-17 23:00N 47°21' W 122°24'4 7.4
2018-Apr-17 22:30N 47°18' W 122°26'4 2.6
2018-Apr-17 21:02N 47°16' W 122°22'2 1.3
2018-Apr-17 19:35N 47°17' W 122°24'1 6.8
2018-Apr-17 19:30N 47°17' W 122°25'4 7.7
2018-Apr-17 19:00N 47°21' W 122°26'4 9.0
2018-Apr-17 18:30N 47°25' W 122°23'510.3
2018-Apr-17 18:00N 47°30' W 122°24'510.2
2018-Apr-17 17:30N 47°35' W 122°25'3 6.5
2018-Apr-17 17:00N 47°34' W 122°21'0 0.2
2018-Apr-17 16:30N 47°34' W 122°21'1 2.4
2018-Apr-17 16:00N 47°35' W 122°21'0 0.0
2018-Apr-17 15:30N 47°35' W 122°21'0 0.0
2018-Apr-17 15:00N 47°35' W 122°21'0 0.0
2018-Apr-17 14:30N 47°35' W 122°21'1 2.3
2018-Apr-17 14:00N 47°34' W 122°21'  
Track history (hours):
 
Tides and Currents Weather Stations Pressure Air Temp Water Temp Dewpoint Dewpoint Depression Visibility Wind Speed Wind Dir Waves Ship Positions

Triumph

Owner: WESTERN TOWBOAT CO, SEATTLE, WA. More information available from US FCC via Universal Licensing System and Coast Guard Vessel Documentation Center.

Last reported at 2018-Apr-27 08:19 UTC. Time now 2018-Apr-27 08:53 UTC.
Position N 49°05' W 123°19'.

Length 24 m; draft 4 m.

Type: Tow > 200 m length. MMSI: 367103880.

Date/timePositionNaut miles runAvg speedWind from/ knotsBaromVisibWave heightAir tempDewpointWater temp
2018-Apr-27 08:19N 49°05' W 123°19'2 5.6
2018-Apr-27 07:59N 49°06' W 123°18'3 6.3
2018-Apr-27 07:30N 49°08' W 123°13'4 7.1
2018-Apr-27 07:00N 49°07' W 123°09'4 7.2
2018-Apr-27 06:31N 49°08' W 123°04'1 2.8
2018-Apr-27 06:00N 49°09' W 123°02'0 0.1
2018-Apr-27 05:30N 49°09' W 123°02'0 0.0
2018-Apr-27 05:00N 49°09' W 123°02'0 0.0
2018-Apr-27 04:29N 49°09' W 123°02'0 0.0
2018-Apr-27 04:00N 49°09' W 123°02'0 0.0
2018-Apr-27 03:29N 49°09' W 123°02'0 0.0
2018-Apr-27 03:00N 49°09' W 123°02'0 0.0
2018-Apr-27 02:29N 49°09' W 123°02'0 0.0
2018-Apr-27 02:00N 49°09' W 123°02'0 0.0
2018-Apr-27 01:30N 49°09' W 123°02'0 0.0
2018-Apr-27 00:59N 49°09' W 123°02'0 0.0
2018-Apr-27 00:31N 49°09' W 123°02'0 0.0
2018-Apr-27 00:01N 49°09' W 123°02'0 0.0
2018-Apr-26 23:30N 49°09' W 123°02'0 0.0
2018-Apr-26 23:01N 49°09' W 123°02'1 2.2
2018-Apr-26 22:30N 49°09' W 123°00'0 0.0
2018-Apr-26 22:01N 49°09' W 123°00'1 2.2
2018-Apr-26 21:30N 49°09' W 123°02'0 0.1
2018-Apr-26 21:00N 49°09' W 123°02'0 0.0
2018-Apr-26 20:31N 49°09' W 123°02'0 0.0
2018-Apr-26 20:01N 49°09' W 123°02'0 0.0
2018-Apr-26 19:30N 49°09' W 123°02'0 0.0
2018-Apr-26 19:00N 49°09' W 123°02'0 0.0
2018-Apr-26 18:30N 49°09' W 123°02'0 0.0
2018-Apr-26 18:00N 49°09' W 123°02'0 0.0
2018-Apr-26 17:30N 49°09' W 123°02'0 0.0
2018-Apr-26 17:00N 49°09' W 123°02'0 0.0
2018-Apr-26 16:30N 49°09' W 123°02'0 0.0
2018-Apr-26 16:01N 49°09' W 123°02'0 0.0
2018-Apr-26 15:30N 49°09' W 123°02'0 0.0
2018-Apr-26 15:01N 49°09' W 123°02'0 0.0
2018-Apr-26 14:31N 49°09' W 123°02'0 0.0
2018-Apr-26 14:00N 49°09' W 123°02'0 0.0
2018-Apr-26 13:29N 49°09' W 123°02'0 0.0
2018-Apr-26 13:01N 49°09' W 123°02'0 0.1
2018-Apr-26 12:30N 49°09' W 123°02'1 1.8
2018-Apr-26 12:00N 49°08' W 123°03'4 7.6
2018-Apr-26 11:31N 49°06' W 123°08'4 7.7
2018-Apr-26 10:57N 49°08' W 123°14'3 6.1
2018-Apr-26 10:22N 49°06' W 123°19'2 4.4
2018-Apr-26 10:00N 49°04' W 123°19'3 6.4
2018-Apr-26 09:28N 49°02' W 123°16'5 6.6
2018-Apr-26 08:45N 48°59' W 123°11'2 6.4
2018-Apr-26 08:30N 48°57' W 123°09'3 6.3
2018-Apr-26 08:00N 48°56' W 123°05'16 6.6
2018-Apr-26 05:39N 48°46' W 122°47'2 6.5
2018-Apr-26 05:21N 48°44' W 122°45'2 6.8
2018-Apr-26 05:01N 48°42' W 122°43'3 6.5
2018-Apr-26 04:30N 48°39' W 122°43'4 6.9
2018-Apr-26 03:59N 48°35' W 122°45'3 7.2
2018-Apr-26 03:31N 48°32' W 122°45'3 7.0
2018-Apr-26 03:00N 48°28' W 122°44'4 7.0
2018-Apr-26 02:29N 48°25' W 122°44'29 8.0
2018-Apr-25 22:53N 47°57' W 122°32'3 8.1
2018-Apr-25 22:31N 47°55' W 122°29'4 8.3
2018-Apr-25 22:01N 47°51' W 122°27'4 7.5
2018-Apr-25 21:31N 47°47' W 122°26'4 7.2
2018-Apr-25 21:01N 47°44' W 122°26'3 6.8
2018-Apr-25 20:31N 47°40' W 122°27'3 6.7
2018-Apr-25 20:01N 47°37' W 122°24'3 5.4
2018-Apr-25 19:30N 47°35' W 122°22'1 2.6
2018-Apr-25 19:00N 47°34' W 122°21'0 0.0
2018-Apr-23 23:11N 47°34' W 122°21'1 3.5
2018-Apr-23 23:01N 47°35' W 122°22'611.0
2018-Apr-23 22:29N 47°39' W 122°26'511.5
2018-Apr-23 22:00N 47°45' W 122°28'611.1
2018-Apr-23 21:30N 47°50' W 122°29'510.3
2018-Apr-23 21:00N 47°55' W 122°31'5 9.6
2018-Apr-23 20:29N 47°59' W 122°37'2010.1
2018-Apr-23 18:31N 48°17' W 122°48'111.7
2018-Apr-23 18:25N 48°18' W 122°47'511.4
2018-Apr-23 18:00N 48°23' W 122°45'611.4
2018-Apr-23 17:30N 48°28' W 122°45'611.5
2018-Apr-23 17:00N 48°34' W 122°45'611.3
2018-Apr-23 16:30N 48°40' W 122°44'611.5
2018-Apr-23 15:58N 48°45' W 122°49'511.8
2018-Apr-23 15:30N 48°48' W 122°55'1211.7
2018-Apr-23 14:28N 48°56' W 123°10'611.7
2018-Apr-23 13:58N 48°59' W 123°17'510.6
2018-Apr-23 13:28N 49°04' W 123°20'511.3
2018-Apr-23 12:59N 49°08' W 123°13'612.1
2018-Apr-23 12:30N 49°08' W 123°04'611.2
2018-Apr-23 12:01N 49°10' W 122°56'4 7.4
2018-Apr-23 11:31N 49°13' W 122°53'1 2.0
2018-Apr-23 11:00N 49°12' W 122°54'1 2.4
2018-Apr-23 10:31N 49°11' W 122°55'2 3.1
2018-Apr-23 10:00N 49°10' W 122°56'2 4.0
2018-Apr-23 09:29N 49°09' W 122°60'3 5.6
2018-Apr-23 08:59N 49°08' W 123°03'3 6.9
2018-Apr-23 08:31N 49°06' W 123°08'4 7.9
2018-Apr-23 07:58N 49°08' W 123°14'3 7.3
2018-Apr-23 07:30N 49°06' W 123°18'2 4.7
2018-Apr-23 06:59N 49°04' W 123°19'3 5.4
2018-Apr-23 06:26N 49°02' W 123°15'3 5.5
2018-Apr-23 05:52N 48°59' W 123°12'2 5.5
2018-Apr-23 05:29N 48°58' W 123°10'6 5.9
2018-Apr-23 04:31N 48°54' W 123°03'15 7.4
2018-Apr-23 02:25N 48°44' W 122°45'4 9.0
2018-Apr-23 02:01N 48°41' W 122°43'4 8.0
2018-Apr-23 01:30N 48°37' W 122°45'4 8.2
2018-Apr-23 01:00N 48°33' W 122°45'3 6.9
2018-Apr-23 00:30N 48°30' W 122°44'4 6.9
2018-Apr-23 00:00N 48°26' W 122°44'30 8.0
2018-Apr-22 20:19N 47°57' W 122°33'3 9.6
2018-Apr-22 20:01N 47°56' W 122°29'4 8.9
2018-Apr-22 19:30N 47°52' W 122°28'4 8.2
2018-Apr-22 19:00N 47°48' W 122°26'4 7.7
2018-Apr-22 18:31N 47°44' W 122°26'4 7.6
2018-Apr-22 18:00N 47°40' W 122°27'4 7.5
2018-Apr-22 17:31N 47°37' W 122°24'3 6.1
2018-Apr-22 17:00N 47°34' W 122°21'0 0.7
2018-Apr-22 16:30N 47°34' W 122°21'0 0.0
2018-Apr-22 16:00N 47°34' W 122°21'0 0.0
2018-Apr-22 02:07N 47°34' W 122°21'0 3.0
2018-Apr-22 02:00N 47°34' W 122°21'2 3.7
2018-Apr-22 01:30N 47°36' W 122°23'3 6.0
2018-Apr-22 01:00N 47°38' W 122°26'3 6.6
2018-Apr-22 00:30N 47°41' W 122°28'4 7.4
2018-Apr-22 00:00N 47°45' W 122°27'4 7.1
2018-Apr-21 23:30N 47°48' W 122°28'4 7.3
2018-Apr-21 23:00N 47°52' W 122°29'4 7.1
2018-Apr-21 22:30N 47°55' W 122°30'3 6.0
2018-Apr-21 21:56N 47°57' W 122°34'2 5.3
2018-Apr-21 21:28N 47°59' W 122°37'20 4.3
2018-Apr-21 16:41N 48°18' W 122°47'1 6.1
2018-Apr-21 16:28N 48°19' W 122°47'3 6.0
2018-Apr-21 16:00N 48°22' W 122°45'3 5.5
2018-Apr-21 15:29N 48°25' W 122°45'3 6.1
2018-Apr-21 15:00N 48°28' W 122°45'3 6.9
2018-Apr-21 14:30N 48°31' W 122°45'4 6.9
2018-Apr-21 13:58N 48°35' W 122°45'3 6.6
2018-Apr-21 13:30N 48°38' W 122°44'3 6.6
2018-Apr-21 13:00N 48°41' W 122°44'4 7.6
2018-Apr-21 12:30N 48°45' W 122°47'5 7.4
2018-Apr-21 11:52N 48°47' W 122°53'8 7.4
2018-Apr-21 10:46N 48°52' W 123°03'2 7.4
2018-Apr-21 10:30N 48°53' W 123°06'4 7.6
2018-Apr-21 09:58N 48°56' W 123°10'5 7.2
2018-Apr-21 09:18N 48°59' W 123°16'2 7.0
2018-Apr-21 08:59N 49°00' W 123°18'4 6.7
2018-Apr-21 08:28N 49°04' W 123°20'3 6.3
2018-Apr-21 08:00N 49°06' W 123°18'3 6.0
2018-Apr-21 07:30N 49°08' W 123°13'3 5.5
2018-Apr-21 06:59N 49°07' W 123°10'2 5.0
2018-Apr-21 06:30N 49°07' W 123°06'2 4.9
2018-Apr-21 06:00N 49°08' W 123°03'1 1.7
2018-Apr-21 05:29N 49°09' W 123°02'0 0.1
2018-Apr-21 04:58N 49°09' W 123°02'0 0.0
2018-Apr-21 04:30N 49°09' W 123°02'0 0.0
2018-Apr-21 04:00N 49°09' W 123°02'0 0.0
2018-Apr-21 03:30N 49°09' W 123°02'0 0.0
2018-Apr-21 03:00N 49°09' W 123°02'0 0.0
2018-Apr-21 02:30N 49°09' W 123°02'0 0.0
2018-Apr-21 02:00N 49°09' W 123°02'0 0.0
2018-Apr-21 01:28N 49°09' W 123°02'0 0.0
2018-Apr-21 00:57N 49°09' W 123°02'0 0.0
2018-Apr-21 00:30N 49°09' W 123°02'0 0.0
2018-Apr-21 00:00N 49°09' W 123°02'0 0.0
2018-Apr-20 23:30N 49°09' W 123°02'0 0.0
2018-Apr-20 23:00N 49°09' W 123°02'0 0.0
2018-Apr-20 22:30N 49°09' W 123°02'0 0.0
2018-Apr-20 22:00N 49°09' W 123°02'0 0.0
2018-Apr-20 21:30N 49°09' W 123°02'0 0.0
2018-Apr-20 21:00N 49°09' W 123°02'0 0.0
2018-Apr-20 20:30N 49°09' W 123°02'0 0.0
2018-Apr-20 20:00N 49°09' W 123°02'0 0.0
2018-Apr-20 19:30N 49°09' W 123°02'0 0.0
2018-Apr-20 19:00N 49°09' W 123°02'0 0.0
2018-Apr-20 18:30N 49°09' W 123°02'0 0.0
2018-Apr-20 18:00N 49°09' W 123°02'0 0.0
2018-Apr-20 17:30N 49°09' W 123°02'0 0.0
2018-Apr-20 17:00N 49°09' W 123°02'0 0.0
2018-Apr-20 16:30N 49°09' W 123°02'0 0.0
2018-Apr-20 16:00N 49°09' W 123°02'0 0.0
2018-Apr-20 15:30N 49°09' W 123°02'0 0.0
2018-Apr-20 15:00N 49°09' W 123°02'0 0.0
2018-Apr-20 14:30N 49°09' W 123°02'0 0.0
2018-Apr-20 13:59N 49°09' W 123°02'0 0.0
2018-Apr-20 13:30N 49°09' W 123°02'0 0.0
2018-Apr-20 13:00N 49°09' W 123°02'0 0.0
2018-Apr-20 12:28N 49°09' W 123°02'0 0.0
2018-Apr-20 12:00N 49°09' W 123°02'0 0.0
2018-Apr-20 11:30N 49°09' W 123°02'0 0.0
2018-Apr-20 11:00N 49°09' W 123°02'0 0.0
2018-Apr-20 10:30N 49°09' W 123°02'0 0.2
2018-Apr-20 10:00N 49°09' W 123°02'3 5.4
2018-Apr-20 09:30N 49°07' W 123°05'3 6.1
2018-Apr-20 08:56N 49°07' W 123°11'3 6.6
2018-Apr-20 08:28N 49°08' W 123°15'4 7.3
2018-Apr-20 07:57N 49°05' W 123°20'3 6.6
2018-Apr-20 07:27N 49°02' W 123°17'5 9.0
2018-Apr-20 06:56N 48°59' W 123°12'4 8.7
2018-Apr-20 06:30N 48°57' W 123°08'18 9.7
2018-Apr-20 04:40N 48°46' W 122°46'211.0
2018-Apr-20 04:30N 48°44' W 122°45'510.5
2018-Apr-20 04:00N 48°39' W 122°43'510.9
2018-Apr-20 03:30N 48°34' W 122°45'611.8
2018-Apr-20 03:00N 48°28' W 122°44'31 6.8
2018-Apr-19 22:32N 47°58' W 122°34'1 6.9
2018-Apr-19 22:23N 47°57' W 122°32'3 8.3
2018-Apr-19 22:00N 47°55' W 122°29'4 8.9
2018-Apr-19 21:30N 47°51' W 122°27'5 9.1
2018-Apr-19 21:00N 47°46' W 122°26'4 8.9
2018-Apr-19 20:30N 47°42' W 122°27'4 8.7
2018-Apr-19 20:00N 47°38' W 122°26'4 8.5
2018-Apr-19 19:30N 47°35' W 122°22'1 2.3
2018-Apr-19 19:00N 47°34' W 122°21'1 0.0
2018-Apr-18 02:04N 47°34' W 122°21'0 0.1
2018-Apr-18 02:00N 47°34' W 122°21'0 0.5
2018-Apr-18 01:30N 47°34' W 122°21'3 5.3
2018-Apr-18 01:01N 47°36' W 122°23'4 7.1
2018-Apr-18 00:30N 47°33' W 122°25'4 8.7
2018-Apr-18 00:00N 47°28' W 122°24'4 8.7
2018-Apr-17 23:30N 47°24' W 122°22'4 7.7
2018-Apr-17 23:00N 47°21' W 122°24'4 7.4
2018-Apr-17 22:30N 47°18' W 122°26'4 2.6
2018-Apr-17 21:02N 47°16' W 122°22'2 1.3
2018-Apr-17 19:35N 47°17' W 122°24'1 6.8
2018-Apr-17 19:30N 47°17' W 122°25'4 7.7
2018-Apr-17 19:00N 47°21' W 122°26'4 9.0
2018-Apr-17 18:30N 47°25' W 122°23'510.3
2018-Apr-17 18:00N 47°30' W 122°24'510.2
2018-Apr-17 17:30N 47°35' W 122°25'3 6.5
2018-Apr-17 17:00N 47°34' W 122°21'0 0.2
2018-Apr-17 16:30N 47°34' W 122°21'1 2.4
2018-Apr-17 16:00N 47°35' W 122°21'0 0.0
2018-Apr-17 15:30N 47°35' W 122°21'0 0.0
2018-Apr-17 15:00N 47°35' W 122°21'0 0.0
2018-Apr-17 14:30N 47°35' W 122°21'1 2.3
2018-Apr-17 14:00N 47°34' W 122°21'  

Dump ship's entire track history